sensor_id;sensor_type;location;lat;lon;timestamp;P1;durP1;ratioP1;P2;durP2;ratioP2
36191;SDS011;22233;42.708;23.360;2022-10-16T00:00:56;4.28;;;2.45;;
36191;SDS011;22233;42.708;23.360;2022-10-16T00:03:21;6.90;;;3.60;;
36191;SDS011;22233;42.708;23.360;2022-10-16T00:05:47;3.00;;;2.50;;
36191;SDS011;22233;42.708;23.360;2022-10-16T00:08:12;4.53;;;3.22;;
36191;SDS011;22233;42.708;23.360;2022-10-16T00:10:38;4.80;;;3.13;;
36191;SDS011;22233;42.708;23.360;2022-10-16T00:13:04;5.32;;;2.92;;
36191;SDS011;22233;42.708;23.360;2022-10-16T00:15:32;5.43;;;3.35;;
36191;SDS011;22233;42.708;23.360;2022-10-16T00:18:01;3.35;;;2.47;;
36191;SDS011;22233;42.708;23.360;2022-10-16T00:20:27;4.93;;;3.40;;
36191;SDS011;22233;42.708;23.360;2022-10-16T00:22:52;4.43;;;2.30;;
36191;SDS011;22233;42.708;23.360;2022-10-16T00:25:18;4.05;;;3.05;;
36191;SDS011;22233;42.708;23.360;2022-10-16T00:27:43;2.83;;;2.42;;
36191;SDS011;22233;42.708;23.360;2022-10-16T00:30:09;6.05;;;3.45;;
36191;SDS011;22233;42.708;23.360;2022-10-16T00:32:34;4.25;;;2.63;;
36191;SDS011;22233;42.708;23.360;2022-10-16T00:35:00;4.22;;;2.25;;
36191;SDS011;22233;42.708;23.360;2022-10-16T00:37:25;4.72;;;2.67;;
36191;SDS011;22233;42.708;23.360;2022-10-16T00:39:50;3.15;;;2.22;;
36191;SDS011;22233;42.708;23.360;2022-10-16T00:42:17;5.68;;;2.88;;
36191;SDS011;22233;42.708;23.360;2022-10-16T00:44:44;3.47;;;2.63;;
36191;SDS011;22233;42.708;23.360;2022-10-16T00:47:26;5.07;;;2.50;;
36191;SDS011;22233;42.708;23.360;2022-10-16T00:50:30;3.97;;;2.40;;
36191;SDS011;22233;42.708;23.360;2022-10-16T00:52:55;3.15;;;2.47;;
36191;SDS011;22233;42.708;23.360;2022-10-16T00:55:22;4.25;;;2.83;;
36191;SDS011;22233;42.708;23.360;2022-10-16T00:57:48;3.83;;;2.55;;
36191;SDS011;22233;42.708;23.360;2022-10-16T01:00:19;3.80;;;2.63;;
36191;SDS011;22233;42.708;23.360;2022-10-16T01:02:53;2.85;;;2.30;;
36191;SDS011;22233;42.708;23.360;2022-10-16T01:05:24;4.30;;;3.05;;
36191;SDS011;22233;42.708;23.360;2022-10-16T01:08:01;3.28;;;1.95;;
36191;SDS011;22233;42.708;23.360;2022-10-16T01:15:54;2.78;;;2.17;;
36191;SDS011;22233;42.708;23.360;2022-10-16T01:18:46;4.70;;;2.40;;
36191;SDS011;22233;42.708;23.360;2022-10-16T01:21:43;4.22;;;2.05;;
36191;SDS011;22233;42.708;23.360;2022-10-16T01:24:36;4.03;;;2.40;;
36191;SDS011;22233;42.708;23.360;2022-10-16T01:27:15;5.22;;;2.00;;
36191;SDS011;22233;42.708;23.360;2022-10-16T01:29:49;4.57;;;2.20;;
36191;SDS011;22233;42.708;23.360;2022-10-16T01:32:22;3.25;;;2.47;;
36191;SDS011;22233;42.708;23.360;2022-10-16T01:35:04;3.88;;;2.60;;
36191;SDS011;22233;42.708;23.360;2022-10-16T01:37:38;2.38;;;2.17;;
36191;SDS011;22233;42.708;23.360;2022-10-16T01:40:09;4.10;;;2.40;;
36191;SDS011;22233;42.708;23.360;2022-10-16T01:42:40;3.58;;;2.38;;
36191;SDS011;22233;42.708;23.360;2022-10-16T01:45:09;2.70;;;1.88;;
36191;SDS011;22233;42.708;23.360;2022-10-16T01:47:38;4.70;;;2.47;;
36191;SDS011;22233;42.708;23.360;2022-10-16T01:50:05;4.20;;;2.53;;
36191;SDS011;22233;42.708;23.360;2022-10-16T01:52:34;3.72;;;2.33;;
36191;SDS011;22233;42.708;23.360;2022-10-16T01:55:03;5.22;;;2.97;;
36191;SDS011;22233;42.708;23.360;2022-10-16T01:57:31;5.30;;;3.33;;
36191;SDS011;22233;42.708;23.360;2022-10-16T02:00:00;3.60;;;2.30;;
36191;SDS011;22233;42.708;23.360;2022-10-16T02:02:29;5.57;;;3.45;;
36191;SDS011;22233;42.708;23.360;2022-10-16T02:05:08;5.68;;;3.22;;
36191;SDS011;22233;42.708;23.360;2022-10-16T02:07:48;5.88;;;4.07;;
36191;SDS011;22233;42.708;23.360;2022-10-16T02:10:14;7.10;;;4.53;;
36191;SDS011;22233;42.708;23.360;2022-10-16T02:12:41;6.22;;;4.15;;
36191;SDS011;22233;42.708;23.360;2022-10-16T02:15:13;8.73;;;4.22;;
36191;SDS011;22233;42.708;23.360;2022-10-16T02:17:38;4.65;;;3.17;;
36191;SDS011;22233;42.708;23.360;2022-10-16T02:20:04;4.50;;;2.83;;
36191;SDS011;22233;42.708;23.360;2022-10-16T02:22:32;4.50;;;3.28;;
36191;SDS011;22233;42.708;23.360;2022-10-16T02:25:12;4.10;;;2.60;;
36191;SDS011;22233;42.708;23.360;2022-10-16T02:30:21;4.55;;;2.55;;
36191;SDS011;22233;42.708;23.360;2022-10-16T02:32:50;4.30;;;2.63;;
36191;SDS011;22233;42.708;23.360;2022-10-16T02:35:17;3.65;;;2.75;;
36191;SDS011;22233;42.708;23.360;2022-10-16T02:37:45;4.10;;;2.80;;
36191;SDS011;22233;42.708;23.360;2022-10-16T02:40:12;4.13;;;2.72;;
36191;SDS011;22233;42.708;23.360;2022-10-16T02:42:39;4.93;;;2.78;;
36191;SDS011;22233;42.708;23.360;2022-10-16T02:45:05;3.80;;;2.67;;
36191;SDS011;22233;42.708;23.360;2022-10-16T02:47:32;6.18;;;3.70;;
36191;SDS011;22233;42.708;23.360;2022-10-16T02:49:57;3.97;;;2.58;;
36191;SDS011;22233;42.708;23.360;2022-10-16T02:52:23;5.43;;;2.28;;
36191;SDS011;22233;42.708;23.360;2022-10-16T02:54:48;3.63;;;2.85;;
36191;SDS011;22233;42.708;23.360;2022-10-16T02:57:13;4.38;;;2.83;;
36191;SDS011;22233;42.708;23.360;2022-10-16T02:59:39;5.55;;;3.15;;
36191;SDS011;22233;42.708;23.360;2022-10-16T03:02:04;3.60;;;2.03;;
36191;SDS011;22233;42.708;23.360;2022-10-16T03:04:30;3.38;;;2.60;;
36191;SDS011;22233;42.708;23.360;2022-10-16T03:06:55;4.30;;;2.50;;
36191;SDS011;22233;42.708;23.360;2022-10-16T03:09:20;3.95;;;2.90;;
36191;SDS011;22233;42.708;23.360;2022-10-16T03:11:46;5.22;;;2.92;;
36191;SDS011;22233;42.708;23.360;2022-10-16T03:14:12;3.67;;;2.67;;
36191;SDS011;22233;42.708;23.360;2022-10-16T03:16:38;4.30;;;2.40;;
36191;SDS011;22233;42.708;23.360;2022-10-16T03:19:03;5.40;;;3.28;;
36191;SDS011;22233;42.708;23.360;2022-10-16T03:21:29;3.45;;;2.55;;
36191;SDS011;22233;42.708;23.360;2022-10-16T03:23:54;3.08;;;2.35;;
36191;SDS011;22233;42.708;23.360;2022-10-16T03:26:20;4.15;;;2.58;;
36191;SDS011;22233;42.708;23.360;2022-10-16T03:28:45;4.55;;;3.03;;
36191;SDS011;22233;42.708;23.360;2022-10-16T03:31:10;4.65;;;2.60;;
36191;SDS011;22233;42.708;23.360;2022-10-16T03:33:36;4.72;;;2.40;;
36191;SDS011;22233;42.708;23.360;2022-10-16T03:36:01;6.75;;;2.70;;
36191;SDS011;22233;42.708;23.360;2022-10-16T03:38:27;5.25;;;2.80;;
36191;SDS011;22233;42.708;23.360;2022-10-16T03:40:52;5.28;;;3.25;;
36191;SDS011;22233;42.708;23.360;2022-10-16T03:43:17;4.97;;;3.50;;
36191;SDS011;22233;42.708;23.360;2022-10-16T03:45:43;5.93;;;3.85;;
36191;SDS011;22233;42.708;23.360;2022-10-16T03:48:08;6.13;;;3.05;;
36191;SDS011;22233;42.708;23.360;2022-10-16T03:50:34;5.00;;;3.15;;
36191;SDS011;22233;42.708;23.360;2022-10-16T03:52:59;5.88;;;3.75;;
36191;SDS011;22233;42.708;23.360;2022-10-16T03:55:24;3.25;;;2.55;;
36191;SDS011;22233;42.708;23.360;2022-10-16T03:57:50;4.00;;;2.70;;
36191;SDS011;22233;42.708;23.360;2022-10-16T04:00:15;4.70;;;2.97;;
36191;SDS011;22233;42.708;23.360;2022-10-16T04:02:40;3.47;;;2.60;;
36191;SDS011;22233;42.708;23.360;2022-10-16T04:05:06;6.07;;;2.92;;
36191;SDS011;22233;42.708;23.360;2022-10-16T04:07:32;6.57;;;2.70;;
36191;SDS011;22233;42.708;23.360;2022-10-16T04:09:57;4.32;;;2.55;;
36191;SDS011;22233;42.708;23.360;2022-10-16T04:12:24;3.63;;;2.42;;
36191;SDS011;22233;42.708;23.360;2022-10-16T04:14:50;2.97;;;2.10;;
36191;SDS011;22233;42.708;23.360;2022-10-16T04:17:15;5.75;;;3.28;;
36191;SDS011;22233;42.708;23.360;2022-10-16T04:19:40;2.58;;;1.92;;
36191;SDS011;22233;42.708;23.360;2022-10-16T04:22:06;3.83;;;2.20;;
36191;SDS011;22233;42.708;23.360;2022-10-16T04:24:31;5.28;;;2.33;;
36191;SDS011;22233;42.708;23.360;2022-10-16T04:26:57;6.43;;;3.00;;
36191;SDS011;22233;42.708;23.360;2022-10-16T04:29:22;6.30;;;2.90;;
36191;SDS011;22233;42.708;23.360;2022-10-16T04:31:47;5.05;;;2.75;;
36191;SDS011;22233;42.708;23.360;2022-10-16T04:34:13;5.20;;;2.85;;
36191;SDS011;22233;42.708;23.360;2022-10-16T04:36:38;4.38;;;2.60;;
36191;SDS011;22233;42.708;23.360;2022-10-16T04:39:04;5.43;;;3.08;;
36191;SDS011;22233;42.708;23.360;2022-10-16T04:41:29;5.00;;;3.78;;
36191;SDS011;22233;42.708;23.360;2022-10-16T04:43:54;5.97;;;3.45;;
36191;SDS011;22233;42.708;23.360;2022-10-16T04:46:20;6.18;;;3.50;;
36191;SDS011;22233;42.708;23.360;2022-10-16T04:48:45;5.80;;;3.38;;
36191;SDS011;22233;42.708;23.360;2022-10-16T04:51:11;5.43;;;3.13;;
36191;SDS011;22233;42.708;23.360;2022-10-16T04:53:37;5.35;;;3.38;;
36191;SDS011;22233;42.708;23.360;2022-10-16T04:56:03;4.32;;;3.03;;
36191;SDS011;22233;42.708;23.360;2022-10-16T04:58:28;3.78;;;2.90;;
36191;SDS011;22233;42.708;23.360;2022-10-16T05:00:54;5.32;;;3.40;;
36191;SDS011;22233;42.708;23.360;2022-10-16T05:03:19;4.90;;;3.70;;
36191;SDS011;22233;42.708;23.360;2022-10-16T05:05:45;6.47;;;3.63;;
36191;SDS011;22233;42.708;23.360;2022-10-16T05:08:12;9.02;;;4.63;;
36191;SDS011;22233;42.708;23.360;2022-10-16T05:10:38;7.45;;;4.63;;
36191;SDS011;22233;42.708;23.360;2022-10-16T05:13:05;4.75;;;3.80;;
36191;SDS011;22233;42.708;23.360;2022-10-16T05:15:31;6.32;;;3.63;;
36191;SDS011;22233;42.708;23.360;2022-10-16T05:17:56;8.63;;;4.82;;
36191;SDS011;22233;42.708;23.360;2022-10-16T05:20:22;10.52;;;5.65;;
36191;SDS011;22233;42.708;23.360;2022-10-16T05:22:48;10.45;;;5.88;;
36191;SDS011;22233;42.708;23.360;2022-10-16T05:25:13;9.27;;;6.18;;
36191;SDS011;22233;42.708;23.360;2022-10-16T05:27:38;7.55;;;5.35;;
36191;SDS011;22233;42.708;23.360;2022-10-16T05:30:04;13.13;;;6.90;;
36191;SDS011;22233;42.708;23.360;2022-10-16T05:32:30;7.57;;;4.90;;
36191;SDS011;22233;42.708;23.360;2022-10-16T05:34:55;9.25;;;5.25;;
36191;SDS011;22233;42.708;23.360;2022-10-16T05:37:21;5.85;;;4.32;;
36191;SDS011;22233;42.708;23.360;2022-10-16T05:39:46;6.55;;;4.45;;
36191;SDS011;22233;42.708;23.360;2022-10-16T05:42:12;7.05;;;3.72;;
36191;SDS011;22233;42.708;23.360;2022-10-16T05:44:37;6.97;;;5.15;;
36191;SDS011;22233;42.708;23.360;2022-10-16T05:47:02;7.45;;;4.22;;
36191;SDS011;22233;42.708;23.360;2022-10-16T05:49:28;12.57;;;5.05;;
36191;SDS011;22233;42.708;23.360;2022-10-16T05:51:53;7.53;;;3.75;;
36191;SDS011;22233;42.708;23.360;2022-10-16T05:54:18;4.97;;;3.60;;
36191;SDS011;22233;42.708;23.360;2022-10-16T05:56:44;12.60;;;4.72;;
36191;SDS011;22233;42.708;23.360;2022-10-16T05:59:09;10.40;;;4.57;;
36191;SDS011;22233;42.708;23.360;2022-10-16T06:01:35;7.95;;;4.40;;
36191;SDS011;22233;42.708;23.360;2022-10-16T06:04:00;6.93;;;3.90;;
36191;SDS011;22233;42.708;23.360;2022-10-16T06:06:26;6.20;;;4.43;;
36191;SDS011;22233;42.708;23.360;2022-10-16T06:08:53;5.87;;;3.73;;
36191;SDS011;22233;42.708;23.360;2022-10-16T06:11:26;4.88;;;2.97;;
36191;SDS011;22233;42.708;23.360;2022-10-16T06:13:57;4.85;;;3.50;;
36191;SDS011;22233;42.708;23.360;2022-10-16T06:16:25;4.45;;;2.95;;
36191;SDS011;22233;42.708;23.360;2022-10-16T06:18:52;3.23;;;2.33;;
36191;SDS011;22233;42.708;23.360;2022-10-16T06:21:18;5.47;;;3.15;;
36191;SDS011;22233;42.708;23.360;2022-10-16T06:23:46;3.63;;;2.67;;
36191;SDS011;22233;42.708;23.360;2022-10-16T06:26:13;4.47;;;2.63;;
36191;SDS011;22233;42.708;23.360;2022-10-16T06:28:40;4.68;;;3.05;;
36191;SDS011;22233;42.708;23.360;2022-10-16T06:31:06;3.25;;;2.55;;
36191;SDS011;22233;42.708;23.360;2022-10-16T06:33:33;4.05;;;2.20;;
36191;SDS011;22233;42.708;23.360;2022-10-16T06:36:00;3.95;;;2.35;;
36191;SDS011;22233;42.708;23.360;2022-10-16T06:38:36;4.40;;;3.17;;
36191;SDS011;22233;42.708;23.360;2022-10-16T06:41:02;5.20;;;2.73;;
36191;SDS011;22233;42.708;23.360;2022-10-16T06:43:29;4.32;;;2.75;;
36191;SDS011;22233;42.708;23.360;2022-10-16T06:46:00;4.05;;;2.90;;
36191;SDS011;22233;42.708;23.360;2022-10-16T06:48:26;3.92;;;2.63;;
36191;SDS011;22233;42.708;23.360;2022-10-16T06:53:53;17.92;;;3.17;;
36191;SDS011;22233;42.708;23.360;2022-10-16T06:56:23;4.25;;;3.03;;
36191;SDS011;22233;42.708;23.360;2022-10-16T06:58:50;4.65;;;2.92;;
36191;SDS011;22233;42.708;23.360;2022-10-16T07:01:16;5.22;;;3.13;;
36191;SDS011;22233;42.708;23.360;2022-10-16T07:06:10;4.93;;;3.47;;
36191;SDS011;22233;42.708;23.360;2022-10-16T07:08:38;7.13;;;3.38;;
36191;SDS011;22233;42.708;23.360;2022-10-16T07:11:06;7.63;;;3.45;;
36191;SDS011;22233;42.708;23.360;2022-10-16T07:13:34;4.70;;;3.50;;
36191;SDS011;22233;42.708;23.360;2022-10-16T07:16:04;4.40;;;2.75;;
36191;SDS011;22233;42.708;23.360;2022-10-16T07:18:49;6.00;;;3.55;;
36191;SDS011;22233;42.708;23.360;2022-10-16T07:21:17;3.00;;;2.42;;
36191;SDS011;22233;42.708;23.360;2022-10-16T07:23:52;4.22;;;3.13;;
36191;SDS011;22233;42.708;23.360;2022-10-16T07:26:19;4.97;;;2.97;;
36191;SDS011;22233;42.708;23.360;2022-10-16T07:28:45;4.57;;;3.08;;
36191;SDS011;22233;42.708;23.360;2022-10-16T07:31:11;4.40;;;3.10;;
36191;SDS011;22233;42.708;23.360;2022-10-16T07:33:38;5.85;;;3.15;;
36191;SDS011;22233;42.708;23.360;2022-10-16T07:36:07;4.85;;;3.15;;
36191;SDS011;22233;42.708;23.360;2022-10-16T07:38:35;4.85;;;3.70;;
36191;SDS011;22233;42.708;23.360;2022-10-16T07:41:02;4.78;;;3.28;;
36191;SDS011;22233;42.708;23.360;2022-10-16T07:43:30;5.85;;;3.13;;
36191;SDS011;22233;42.708;23.360;2022-10-16T07:45:56;5.25;;;3.17;;
36191;SDS011;22233;42.708;23.360;2022-10-16T07:48:22;4.53;;;2.90;;
36191;SDS011;22233;42.708;23.360;2022-10-16T07:50:49;3.42;;;3.13;;
36191;SDS011;22233;42.708;23.360;2022-10-16T07:53:14;4.05;;;3.40;;
36191;SDS011;22233;42.708;23.360;2022-10-16T07:55:40;5.95;;;3.53;;
36191;SDS011;22233;42.708;23.360;2022-10-16T07:58:06;4.65;;;3.58;;
36191;SDS011;22233;42.708;23.360;2022-10-16T08:00:32;5.85;;;3.70;;
36191;SDS011;22233;42.708;23.360;2022-10-16T08:02:58;5.00;;;3.75;;
36191;SDS011;22233;42.708;23.360;2022-10-16T08:05:25;3.42;;;2.85;;
36191;SDS011;22233;42.708;23.360;2022-10-16T08:07:52;5.07;;;3.08;;
36191;SDS011;22233;42.708;23.360;2022-10-16T08:10:18;4.88;;;3.13;;
36191;SDS011;22233;42.708;23.360;2022-10-16T08:12:45;5.97;;;2.25;;
36191;SDS011;22233;42.708;23.360;2022-10-16T08:15:10;3.92;;;3.15;;
36191;SDS011;22233;42.708;23.360;2022-10-16T08:17:36;4.78;;;2.95;;
36191;SDS011;22233;42.708;23.360;2022-10-16T08:20:01;4.15;;;3.17;;
36191;SDS011;22233;42.708;23.360;2022-10-16T08:22:27;4.68;;;2.83;;
36191;SDS011;22233;42.708;23.360;2022-10-16T08:24:53;4.63;;;2.92;;
36191;SDS011;22233;42.708;23.360;2022-10-16T08:27:19;3.58;;;2.70;;
36191;SDS011;22233;42.708;23.360;2022-10-16T08:29:44;3.47;;;2.50;;
36191;SDS011;22233;42.708;23.360;2022-10-16T08:32:09;6.20;;;2.97;;
36191;SDS011;22233;42.708;23.360;2022-10-16T08:34:35;2.97;;;2.50;;
36191;SDS011;22233;42.708;23.360;2022-10-16T08:37:00;4.40;;;2.45;;
36191;SDS011;22233;42.708;23.360;2022-10-16T08:39:26;1.98;;;1.60;;
36191;SDS011;22233;42.708;23.360;2022-10-16T08:45:01;6.60;;;2.53;;
36191;SDS011;22233;42.708;23.360;2022-10-16T08:47:49;3.90;;;2.20;;
36191;SDS011;22233;42.708;23.360;2022-10-16T08:50:25;3.25;;;2.22;;
36191;SDS011;22233;42.708;23.360;2022-10-16T08:52:53;2.03;;;1.52;;
36191;SDS011;22233;42.708;23.360;2022-10-16T08:57:53;2.35;;;1.75;;
36191;SDS011;22233;42.708;23.360;2022-10-16T09:00:19;2.55;;;1.55;;
36191;SDS011;22233;42.708;23.360;2022-10-16T09:02:45;1.92;;;1.50;;
36191;SDS011;22233;42.708;23.360;2022-10-16T09:10:54;2.17;;;1.60;;
36191;SDS011;22233;42.708;23.360;2022-10-16T09:21:33;2.30;;;1.63;;
36191;SDS011;22233;42.708;23.360;2022-10-16T09:24:07;4.03;;;1.58;;
36191;SDS011;22233;42.708;23.360;2022-10-16T09:26:35;2.10;;;1.60;;
36191;SDS011;22233;42.708;23.360;2022-10-16T09:29:00;3.90;;;1.35;;
36191;SDS011;22233;42.708;23.360;2022-10-16T09:31:27;2.03;;;1.40;;
36191;SDS011;22233;42.708;23.360;2022-10-16T09:33:59;2.25;;;1.33;;
36191;SDS011;22233;42.708;23.360;2022-10-16T09:36:31;2.65;;;1.85;;
36191;SDS011;22233;42.708;23.360;2022-10-16T09:39:07;2.95;;;1.58;;
36191;SDS011;22233;42.708;23.360;2022-10-16T09:41:41;2.60;;;1.73;;
36191;SDS011;22233;42.708;23.360;2022-10-16T09:44:19;2.25;;;1.45;;
36191;SDS011;22233;42.708;23.360;2022-10-16T09:47:00;4.05;;;2.00;;
36191;SDS011;22233;42.708;23.360;2022-10-16T09:49:26;2.55;;;1.77;;
36191;SDS011;22233;42.708;23.360;2022-10-16T09:54:50;2.22;;;1.80;;
36191;SDS011;22233;42.708;23.360;2022-10-16T09:57:20;2.70;;;1.63;;
36191;SDS011;22233;42.708;23.360;2022-10-16T09:59:50;2.85;;;1.50;;
36191;SDS011;22233;42.708;23.360;2022-10-16T10:02:36;2.25;;;2.05;;
36191;SDS011;22233;42.708;23.360;2022-10-16T10:05:04;5.82;;;3.97;;
36191;SDS011;22233;42.708;23.360;2022-10-16T10:07:35;3.45;;;2.05;;
36191;SDS011;22233;42.708;23.360;2022-10-16T10:10:20;3.78;;;1.60;;
36191;SDS011;22233;42.708;23.360;2022-10-16T10:12:48;2.42;;;1.77;;
36191;SDS011;22233;42.708;23.360;2022-10-16T10:15:14;3.25;;;1.77;;
36191;SDS011;22233;42.708;23.360;2022-10-16T10:17:56;2.20;;;1.58;;
36191;SDS011;22233;42.708;23.360;2022-10-16T10:20:34;2.30;;;1.65;;
36191;SDS011;22233;42.708;23.360;2022-10-16T10:23:25;1.90;;;1.38;;
36191;SDS011;22233;42.708;23.360;2022-10-16T10:31:12;3.08;;;2.10;;
36191;SDS011;22233;42.708;23.360;2022-10-16T10:33:47;2.22;;;1.50;;
36191;SDS011;22233;42.708;23.360;2022-10-16T10:38:57;2.42;;;1.70;;
36191;SDS011;22233;42.708;23.360;2022-10-16T10:41:36;2.28;;;1.77;;
36191;SDS011;22233;42.708;23.360;2022-10-16T10:46:52;6.25;;;1.60;;
36191;SDS011;22233;42.708;23.360;2022-10-16T10:54:55;1.67;;;1.58;;
36191;SDS011;22233;42.708;23.360;2022-10-16T10:58:23;4.00;;;1.63;;
36191;SDS011;22233;42.708;23.360;2022-10-16T11:05:49;4.75;;;1.50;;
36191;SDS011;22233;42.708;23.360;2022-10-16T11:08:18;3.65;;;1.85;;
36191;SDS011;22233;42.708;23.360;2022-10-16T11:11:01;1.52;;;1.42;;
36191;SDS011;22233;42.708;23.360;2022-10-16T11:16:27;2.28;;;1.58;;
36191;SDS011;22233;42.708;23.360;2022-10-16T11:22:22;3.42;;;1.73;;
36191;SDS011;22233;42.708;23.360;2022-10-16T11:27:50;3.28;;;1.25;;
36191;SDS011;22233;42.708;23.360;2022-10-16T11:30:23;1.92;;;1.70;;
36191;SDS011;22233;42.708;23.360;2022-10-16T11:35:29;1.55;;;1.10;;
36191;SDS011;22233;42.708;23.360;2022-10-16T11:38:03;2.05;;;1.50;;
36191;SDS011;22233;42.708;23.360;2022-10-16T11:40:54;2.22;;;1.63;;
36191;SDS011;22233;42.708;23.360;2022-10-16T11:43:32;2.60;;;1.30;;
36191;SDS011;22233;42.708;23.360;2022-10-16T11:46:04;2.55;;;1.75;;
36191;SDS011;22233;42.708;23.360;2022-10-16T11:48:39;2.00;;;1.38;;
36191;SDS011;22233;42.708;23.360;2022-10-16T11:54:08;2.88;;;1.42;;
36191;SDS011;22233;42.708;23.360;2022-10-16T11:56:45;2.13;;;1.48;;
36191;SDS011;22233;42.708;23.360;2022-10-16T11:59:17;3.35;;;1.40;;
36191;SDS011;22233;42.708;23.360;2022-10-16T12:05:05;1.75;;;1.40;;
36191;SDS011;22233;42.708;23.360;2022-10-16T12:07:43;2.45;;;1.48;;
36191;SDS011;22233;42.708;23.360;2022-10-16T12:12:45;1.92;;;1.23;;
36191;SDS011;22233;42.708;23.360;2022-10-16T12:15:19;2.42;;;1.40;;
36191;SDS011;22233;42.708;23.360;2022-10-16T12:17:45;2.05;;;1.25;;
36191;SDS011;22233;42.708;23.360;2022-10-16T12:22:36;2.05;;;1.42;;
36191;SDS011;22233;42.708;23.360;2022-10-16T12:25:01;3.35;;;1.60;;
36191;SDS011;22233;42.708;23.360;2022-10-16T12:27:28;1.65;;;1.50;;
36191;SDS011;22233;42.708;23.360;2022-10-16T12:29:57;2.17;;;1.90;;
36191;SDS011;22233;42.708;23.360;2022-10-16T12:34:55;7.18;;;3.13;;
36191;SDS011;22233;42.708;23.360;2022-10-16T12:37:22;3.25;;;1.50;;
36191;SDS011;22233;42.708;23.360;2022-10-16T12:39:51;5.55;;;1.35;;
36191;SDS011;22233;42.708;23.360;2022-10-16T12:44:53;1.85;;;1.13;;
36191;SDS011;22233;42.708;23.360;2022-10-16T12:55:02;2.25;;;1.15;;
36191;SDS011;22233;42.708;23.360;2022-10-16T12:57:31;2.28;;;1.25;;
36191;SDS011;22233;42.708;23.360;2022-10-16T13:00:10;2.95;;;1.50;;
36191;SDS011;22233;42.708;23.360;2022-10-16T13:19:06;2.03;;;1.27;;
36191;SDS011;22233;42.708;23.360;2022-10-16T13:29:41;3.17;;;1.00;;
36191;SDS011;22233;42.708;23.360;2022-10-16T13:32:07;1.98;;;1.10;;
36191;SDS011;22233;42.708;23.360;2022-10-16T13:34:46;1.20;;;0.80;;
36191;SDS011;22233;42.708;23.360;2022-10-16T13:37:31;1.77;;;1.02;;
36191;SDS011;22233;42.708;23.360;2022-10-16T13:42:44;2.45;;;1.27;;
36191;SDS011;22233;42.708;23.360;2022-10-16T13:45:23;2.92;;;1.00;;
36191;SDS011;22233;42.708;23.360;2022-10-16T13:48:00;1.23;;;1.05;;
36191;SDS011;22233;42.708;23.360;2022-10-16T13:50:30;1.80;;;1.63;;
36191;SDS011;22233;42.708;23.360;2022-10-16T13:53:14;1.00;;;0.90;;
36191;SDS011;22233;42.708;23.360;2022-10-16T13:55:39;2.40;;;1.50;;
36191;SDS011;22233;42.708;23.360;2022-10-16T13:58:10;1.33;;;1.00;;
36191;SDS011;22233;42.708;23.360;2022-10-16T14:00:38;2.80;;;1.13;;
36191;SDS011;22233;42.708;23.360;2022-10-16T14:03:05;2.10;;;1.02;;
36191;SDS011;22233;42.708;23.360;2022-10-16T14:05:42;1.60;;;0.90;;
36191;SDS011;22233;42.708;23.360;2022-10-16T14:08:13;1.95;;;1.10;;
36191;SDS011;22233;42.708;23.360;2022-10-16T14:10:38;1.27;;;1.05;;
36191;SDS011;22233;42.708;23.360;2022-10-16T14:13:05;1.73;;;1.20;;
36191;SDS011;22233;42.708;23.360;2022-10-16T14:15:33;2.05;;;0.90;;
36191;SDS011;22233;42.708;23.360;2022-10-16T14:18:00;1.48;;;1.15;;
36191;SDS011;22233;42.708;23.360;2022-10-16T14:20:26;1.75;;;1.08;;
36191;SDS011;22233;42.708;23.360;2022-10-16T14:23:37;2.85;;;1.13;;
36191;SDS011;22233;42.708;23.360;2022-10-16T14:25:46;1.00;;;0.73;;
36191;SDS011;22233;42.708;23.360;2022-10-16T14:28:18;1.50;;;0.90;;
36191;SDS011;22233;42.708;23.360;2022-10-16T14:30:52;1.02;;;0.65;;
36191;SDS011;22233;42.708;23.360;2022-10-16T14:38:35;2.50;;;1.17;;
36191;SDS011;22233;42.708;23.360;2022-10-16T14:41:01;1.23;;;0.80;;
36191;SDS011;22233;42.708;23.360;2022-10-16T14:46:14;1.50;;;0.80;;
36191;SDS011;22233;42.708;23.360;2022-10-16T14:51:16;1.55;;;1.00;;
36191;SDS011;22233;42.708;23.360;2022-10-16T14:53:42;1.48;;;1.00;;
36191;SDS011;22233;42.708;23.360;2022-10-16T14:56:21;3.42;;;1.50;;
36191;SDS011;22233;42.708;23.360;2022-10-16T14:58:51;1.83;;;1.20;;
36191;SDS011;22233;42.708;23.360;2022-10-16T15:01:17;1.30;;;1.00;;
36191;SDS011;22233;42.708;23.360;2022-10-16T15:03:43;1.17;;;0.90;;
36191;SDS011;22233;42.708;23.360;2022-10-16T15:06:12;1.08;;;0.80;;
36191;SDS011;22233;42.708;23.360;2022-10-16T15:08:38;1.58;;;0.88;;
36191;SDS011;22233;42.708;23.360;2022-10-16T15:11:04;2.65;;;1.20;;
36191;SDS011;22233;42.708;23.360;2022-10-16T15:13:34;2.45;;;1.45;;
36191;SDS011;22233;42.708;23.360;2022-10-16T15:16:00;2.80;;;1.13;;
36191;SDS011;22233;42.708;23.360;2022-10-16T15:18:25;1.20;;;0.88;;
36191;SDS011;22233;42.708;23.360;2022-10-16T15:20:51;1.85;;;0.98;;
36191;SDS011;22233;42.708;23.360;2022-10-16T15:23:18;4.20;;;1.17;;
36191;SDS011;22233;42.708;23.360;2022-10-16T15:25:46;1.20;;;0.98;;
36191;SDS011;22233;42.708;23.360;2022-10-16T15:28:14;2.63;;;1.35;;
36191;SDS011;22233;42.708;23.360;2022-10-16T15:30:41;2.45;;;1.23;;
36191;SDS011;22233;42.708;23.360;2022-10-16T15:33:17;3.58;;;1.08;;
36191;SDS011;22233;42.708;23.360;2022-10-16T15:38:13;2.30;;;1.40;;
36191;SDS011;22233;42.708;23.360;2022-10-16T15:40:39;1.55;;;1.25;;
36191;SDS011;22233;42.708;23.360;2022-10-16T15:43:06;2.75;;;1.50;;
36191;SDS011;22233;42.708;23.360;2022-10-16T15:45:31;2.92;;;0.98;;
36191;SDS011;22233;42.708;23.360;2022-10-16T15:47:57;2.08;;;1.05;;
36191;SDS011;22233;42.708;23.360;2022-10-16T15:50:22;1.30;;;1.10;;
36191;SDS011;22233;42.708;23.360;2022-10-16T15:52:48;2.00;;;1.20;;
36191;SDS011;22233;42.708;23.360;2022-10-16T15:55:15;3.05;;;1.15;;
36191;SDS011;22233;42.708;23.360;2022-10-16T15:57:40;1.60;;;1.00;;
36191;SDS011;22233;42.708;23.360;2022-10-16T16:00:08;1.88;;;1.27;;
36191;SDS011;22233;42.708;23.360;2022-10-16T16:02:39;3.78;;;1.58;;
36191;SDS011;22233;42.708;23.360;2022-10-16T16:05:08;4.10;;;1.58;;
36191;SDS011;22233;42.708;23.360;2022-10-16T16:07:36;2.40;;;1.55;;
36191;SDS011;22233;42.708;23.360;2022-10-16T16:10:03;1.65;;;1.45;;
36191;SDS011;22233;42.708;23.360;2022-10-16T16:12:30;2.08;;;1.20;;
36191;SDS011;22233;42.708;23.360;2022-10-16T16:14:56;2.13;;;1.40;;
36191;SDS011;22233;42.708;23.360;2022-10-16T16:17:21;1.05;;;0.95;;
36191;SDS011;22233;42.708;23.360;2022-10-16T16:19:47;2.00;;;1.45;;
36191;SDS011;22233;42.708;23.360;2022-10-16T16:22:12;0.85;;;0.85;;
36191;SDS011;22233;42.708;23.360;2022-10-16T16:24:38;2.40;;;1.58;;
36191;SDS011;22233;42.708;23.360;2022-10-16T16:27:03;1.95;;;1.40;;
36191;SDS011;22233;42.708;23.360;2022-10-16T16:29:29;4.15;;;1.65;;
36191;SDS011;22233;42.708;23.360;2022-10-16T16:31:54;4.28;;;1.27;;
36191;SDS011;22233;42.708;23.360;2022-10-16T16:34:25;3.05;;;1.65;;
36191;SDS011;22233;42.708;23.360;2022-10-16T16:36:54;2.67;;;1.75;;
36191;SDS011;22233;42.708;23.360;2022-10-16T16:39:20;2.35;;;1.75;;
36191;SDS011;22233;42.708;23.360;2022-10-16T16:41:45;3.72;;;2.13;;
36191;SDS011;22233;42.708;23.360;2022-10-16T16:44:13;6.55;;;2.30;;
36191;SDS011;22233;42.708;23.360;2022-10-16T16:46:39;4.78;;;2.35;;
36191;SDS011;22233;42.708;23.360;2022-10-16T16:49:08;3.03;;;2.00;;
36191;SDS011;22233;42.708;23.360;2022-10-16T16:51:35;5.03;;;2.10;;
36191;SDS011;22233;42.708;23.360;2022-10-16T16:54:01;3.00;;;1.92;;
36191;SDS011;22233;42.708;23.360;2022-10-16T16:56:26;3.35;;;2.25;;